Terminal Aerodrome Forecast
Issued by NWS

Current Version | Previous Version | Text Only | Print | Product List | Glossary On
Versions: 1 2 3 4 5 6 7 8 9 10 11 12
000
FTUS42 TJSJ 282300 RRA
TAFNCM
TAF
TNCM 282345Z 2900/2924 09008KT P6SM SCT022
     FM291300 12013KT P6SM SCT020
     FM292300 10007KT P6SM FEW022=

USA.gov is the U.S. government's official web portal to all federal, state and local government web resources and services.